createdAt,value
2019-02-10T00:02:29.350Z,66.33
2019-02-10T00:07:33.213Z,66.35
2019-02-10T00:12:40.546Z,66.25
2019-02-10T00:17:44.366Z,66.73
2019-02-10T00:22:48.073Z,66.44
2019-02-10T00:27:51.959Z,66.74
2019-02-10T00:32:56.282Z,66.72
2019-02-10T00:38:00.062Z,66.43
2019-02-10T00:43:04.115Z,66.69
2019-02-10T00:48:07.991Z,66.88
2019-02-10T00:53:11.866Z,67.21
2019-02-10T00:58:15.772Z,67.30
2019-02-10T01:03:19.716Z,67.53
2019-02-10T01:08:25.501Z,67.74
2019-02-10T01:13:31.023Z,68.34
2019-02-10T01:18:34.804Z,68.56
2019-02-10T01:23:38.641Z,68.34
2019-02-10T01:28:42.597Z,68.19
2019-02-10T01:33:46.790Z,68.15
2019-02-10T01:38:51.919Z,68.38
2019-02-10T01:43:55.737Z,68.76
2019-02-10T01:48:59.484Z,68.82
2019-02-10T01:54:06.342Z,68.17
2019-02-10T01:59:10.275Z,68.27
2019-02-10T02:04:14.048Z,68.43
2019-02-10T02:09:18.025Z,68.57
2019-02-10T02:14:22.453Z,68.62
2019-02-10T02:19:26.170Z,68.40
2019-02-10T02:24:29.899Z,68.37
2019-02-10T02:29:33.869Z,68.17
2019-02-10T02:34:39.732Z,68.50
2019-02-10T02:39:45.221Z,68.52
2019-02-10T02:44:49.236Z,68.47
2019-02-10T02:49:53.253Z,68.48
2019-02-10T02:54:57.385Z,68.60
2019-02-10T03:00:01.418Z,68.70
2019-02-10T03:05:06.925Z,68.76
2019-02-10T03:10:10.926Z,68.80
2019-02-10T03:15:15.669Z,68.87
2019-02-10T03:20:19.329Z,68.89
2019-02-10T03:25:24.184Z,69.23
2019-02-10T03:30:28.173Z,69.13
2019-02-10T03:35:32.983Z,69.23
2019-02-10T03:40:37.200Z,68.73
2019-02-10T03:45:41.301Z,68.76
2019-02-10T03:50:45.263Z,68.68
2019-02-10T03:55:53.084Z,68.85
2019-02-10T04:00:56.857Z,68.94
2019-02-10T04:06:00.604Z,69.00
2019-02-10T04:11:06.902Z,68.70
2019-02-10T04:16:12.377Z,68.56
2019-02-10T04:21:16.152Z,68.88
2019-02-10T04:26:20.080Z,68.98
2019-02-10T04:31:24.017Z,69.21
2019-02-10T04:36:27.808Z,69.08
2019-02-10T04:41:31.746Z,69.03
2019-02-10T04:46:35.613Z,69.11
2019-02-10T04:51:39.631Z,69.34
2019-02-10T04:56:43.659Z,69.09
2019-02-10T05:01:50.985Z,69.06
2019-02-10T05:06:56.666Z,68.98
2019-02-10T05:12:00.903Z,68.89
2019-02-10T05:17:06.503Z,69.08
2019-02-10T05:22:10.399Z,69.08
2019-02-10T05:27:14.548Z,69.17
2019-02-10T05:32:19.172Z,69.16
2019-02-10T05:37:24.556Z,69.33
2019-02-10T05:42:28.428Z,69.40
2019-02-10T05:47:32.319Z,69.29
2019-02-10T05:52:36.157Z,69.13
2019-02-10T05:57:40.166Z,69.35
2019-02-10T06:02:44.258Z,69.07
2019-02-10T06:07:48.070Z,68.90
2019-02-10T06:12:52.945Z,68.82
2019-02-10T06:17:58.387Z,68.53
2019-02-10T06:23:02.330Z,68.67
2019-02-10T06:28:06.194Z,68.46
2019-02-10T06:33:11.124Z,67.71
2019-02-10T06:38:22.248Z,67.22
2019-02-10T06:43:20.737Z,67.81
2019-02-10T06:48:25.630Z,66.85
2019-02-10T06:53:29.477Z,66.06
2019-02-10T06:58:33.330Z,65.87
2019-02-10T07:03:54.549Z,65.43
2019-02-10T07:08:58.546Z,65.15
2019-02-10T07:14:04.568Z,64.66
2019-02-10T07:19:45.770Z,64.08
2019-02-10T07:25:00.449Z,64.36
2019-02-10T07:30:56.902Z,64.02
2019-02-10T07:36:37.512Z,63.46
2019-02-10T07:42:08.893Z,63.08
2019-02-10T07:48:02.434Z,62.27
2019-02-10T07:53:47.802Z,62.11
2019-02-10T07:59:34.818Z,60.84
2019-02-10T08:04:57.118Z,60.64
2019-02-10T08:10:47.452Z,61.86
2019-02-10T08:16:23.519Z,61.93
2019-02-10T08:21:36.303Z,60.68
2019-02-10T08:27:22.666Z,60.29
2019-02-10T08:32:58.425Z,59.32
2019-02-10T08:38:54.802Z,61.24
2019-02-10T08:44:40.845Z,61.58
2019-02-10T08:50:13.485Z,60.34
2019-02-10T08:55:17.377Z,60.26
2019-02-10T09:00:23.876Z,60.92
2019-02-10T09:05:39.803Z,60.34
2019-02-10T09:10:52.138Z,60.29
2019-02-10T09:15:57.164Z,59.01
2019-02-10T09:21:04.482Z,58.47
2019-02-10T09:26:13.469Z,58.46
2019-02-10T09:31:18.627Z,57.90
2019-02-10T09:36:24.777Z,59.01
2019-02-10T09:41:29.482Z,58.68
2019-02-10T09:46:35.116Z,58.06
2019-02-10T09:51:40.559Z,57.13
2019-02-10T09:56:45.642Z,57.66
2019-02-10T10:01:51.205Z,58.05
2019-02-10T10:06:57.667Z,57.47
2019-02-10T10:12:07.063Z,57.21
2019-02-10T10:17:11.425Z,56.88
2019-02-10T10:22:19.952Z,56.63
2019-02-10T10:27:25.345Z,56.15
2019-02-10T10:32:29.228Z,55.92
2019-02-10T10:37:33.046Z,56.15
2019-02-10T10:42:39.111Z,55.43
2019-02-10T10:47:43.180Z,54.96
2019-02-10T10:52:47.813Z,54.91
2019-02-10T10:58:19.357Z,54.42
2019-02-10T11:03:29.116Z,53.77
2019-02-10T11:08:35.870Z,54.00
2019-02-10T11:13:41.133Z,53.73
2019-02-10T11:18:45.479Z,54.11
2019-02-10T11:23:50.519Z,53.59
2019-02-10T11:28:57.596Z,54.10
2019-02-10T11:34:04.139Z,53.82
2019-02-10T11:39:08.973Z,53.07
2019-02-10T11:44:14.459Z,53.35
2019-02-10T11:49:19.546Z,53.00
2019-02-10T11:54:24.513Z,52.84
2019-02-10T11:59:30.491Z,51.85
2019-02-10T12:04:49.606Z,51.36
2019-02-10T12:10:01.673Z,52.24
2019-02-10T12:15:10.353Z,50.23
